El Palomar, Argentina

3:09 PM ART on November 24, 2014 (GMT -0300)
Loma Hermosa | Change Station
CLOSE
Current Station
Personal Weather Station
Location: Loma Hermosa, BUENOS AIRES
Elevation: 70 ft
Nearby Weather Stations

Elev 70 ft 34.56 °S, 58.59 °W | Updated 9 minutes ago

Overcast
Overcast
71.1 °F
Feels Like 72 °F
N
1.6
Wind Variable Wind from SW
Gusts 6.9 mph

Today
High -- | Low -- °F
--% Chance of Precip.
Yesterday
High -- | Low -- °F
Precip. -- in
5:36 AM 7:46 PM
Waxing Crescent, 6% visible
Pressure 29.80 in
Visibility 5.6 miles
Clouds Few 5000 ft
Overcast 5000 ft
Heat Index 72 °F
Dew Point 64 °F
Humidity 77%
Rainfall 0.05 in
Snow Depth Not available.
UV 4 out of 12
Pollen Not available.
Air Quality Not available.
Flu Activity Not available.
METAR SADF 241700Z 32003KT 9000 -TSRA FEW050CB OVC050 22/18 Q1009

More Conditions Fewer Conditions

Pressure 29.80 in
Visibility 5.6 miles
Clouds Few 5000 ft
Overcast 5000 ft
Heat Index 72 °F
Dew Point 64 °F
Humidity 77%
Rainfall 0.05 in
Snow Depth Not available.
UV 4 out of 12
Pollen Not available.
Air Quality Not available.
Flu Activity Not available.
METAR SADF 241700Z 32003KT 9000 -TSRA FEW050CB OVC050 22/18 Q1009

More Conditions Fewer Conditions

10-Day Weather Forecast

Almanac

Astronomy

Nov. 24, 2014 Rise Set
Actual Time
Civil Twilight
Nautical Twilight
Astronomical Twilight
Moon
Length of Visible Light
Length of Day
Tomorrow will be .
, % of the Moon is Illuminated

Today's Extremes

Country Highs Country Lows

Community

WunderPhotos

Upload Photos

1,773,381 photos uploaded!

WunderBlogs® & News

Nearby

Air Quality

  Air Quality AQ Index Pollutant
Not available.

Snow Depth

Station Depth Elevation

Earthquake Activity

City Distance Mag. Time & Date
Minimum magnitude displayed is 2.5.

Coastal Water Temperatures

Place Temperature

Nearby Weather Stations